createdAt,value
2019-04-01T00:00:01.132Z,1.14
2019-04-01T00:05:01.064Z,0.29
2019-04-01T00:10:01.363Z,1.11
2019-04-01T00:15:01.053Z,1.25
2019-04-01T00:20:01.428Z,0.82
2019-04-01T00:25:01.028Z,0.76
2019-04-01T00:30:01.053Z,0.62
2019-04-01T00:35:01.114Z,0.97
2019-04-01T00:40:01.370Z,0.75
2019-04-01T00:45:01.104Z,0.43
2019-04-01T00:50:01.051Z,0.30
2019-04-01T00:55:01.443Z,0.29
2019-04-01T01:00:01.064Z,0.90
2019-04-01T01:05:01.101Z,0.88
2019-04-01T01:10:01.426Z,0.82
2019-04-01T01:15:01.063Z,0.83
2019-04-01T01:20:01.493Z,0.85
2019-04-01T01:25:01.031Z,0.95
2019-04-01T01:30:01.074Z,0.59
2019-04-01T01:35:01.373Z,0.25
2019-04-01T01:40:01.040Z,0.57
2019-04-01T01:45:01.032Z,0.41
2019-04-01T01:50:01.069Z,0.59
2019-04-01T01:55:01.082Z,0.66
2019-04-01T02:00:01.480Z,1.19
2019-04-01T02:05:01.037Z,0.49
2019-04-01T02:10:01.076Z,0.35
2019-04-01T02:15:01.045Z,1.23
2019-04-01T02:20:01.051Z,0.97
2019-04-01T02:25:01.366Z,0.70
2019-04-01T02:30:01.060Z,0.62
2019-04-01T02:35:01.079Z,1.30
2019-04-01T03:20:01.081Z,0.65
2019-04-01T03:25:01.399Z,0.72
2019-04-01T03:30:01.121Z,0.63
2019-04-01T03:35:01.707Z,0.45
2019-04-01T03:40:01.144Z,0.96
2019-04-01T03:45:01.081Z,0.71
2019-04-01T03:50:01.100Z,0.50
2019-04-01T03:55:01.397Z,0.00
2019-04-01T04:00:01.047Z,0.36
2019-04-01T04:05:01.067Z,0.06
2019-04-01T04:10:01.085Z,0.47
2019-04-01T04:15:01.074Z,0.65
2019-04-01T04:20:01.114Z,0.16
2019-04-01T04:25:01.397Z,0.38
2019-04-01T04:30:01.046Z,0.94
2019-04-01T04:35:01.266Z,0.96
2019-04-01T04:40:01.110Z,0.40
2019-04-01T04:45:01.466Z,0.58
2019-04-01T04:50:01.125Z,0.87
2019-04-01T04:55:01.763Z,0.40
2019-04-01T05:00:01.044Z,0.42
2019-04-01T05:05:01.467Z,0.59
2019-04-01T05:10:01.045Z,1.06
2019-04-01T05:15:01.063Z,0.60
2019-04-01T05:20:01.123Z,0.00
2019-04-01T05:25:01.164Z,0.00
2019-04-01T05:30:01.407Z,0.13
2019-04-01T05:35:01.067Z,0.11
2019-04-01T05:40:01.404Z,0.02
2019-04-01T05:45:01.120Z,0.04
2019-04-01T05:50:01.355Z,0.00
2019-04-01T05:55:01.046Z,0.07
2019-04-01T06:00:01.050Z,0.09
2019-04-01T06:05:01.060Z,0.01
2019-04-01T06:10:01.071Z,0.21
2019-04-01T06:15:01.111Z,0.00
2019-04-01T06:20:01.142Z,0.36
2019-04-01T06:25:01.389Z,0.28
2019-04-01T06:30:01.063Z,0.29
2019-04-01T06:35:01.055Z,0.34
2019-04-01T06:40:01.384Z,0.22
2019-04-01T06:45:01.079Z,0.00
2019-04-01T06:50:01.108Z,0.16
2019-04-01T06:55:01.064Z,0.04
2019-04-01T07:00:01.170Z,0.45
2019-04-01T07:05:01.056Z,0.30
2019-04-01T07:10:01.364Z,1.44
2019-04-01T07:15:01.051Z,0.80
2019-04-01T07:20:01.125Z,0.50
2019-04-01T07:25:01.379Z,0.69
2019-04-01T07:30:01.072Z,1.88
2019-04-01T07:35:01.199Z,1.96
2019-04-01T07:40:01.373Z,3.80
2019-04-01T07:45:01.156Z,3.36
2019-04-01T07:50:01.456Z,3.43
2019-04-01T07:55:01.523Z,1.92
2019-04-01T08:00:01.137Z,3.63
2019-04-01T08:05:01.090Z,3.23
2019-04-01T08:10:01.062Z,3.79
2019-04-01T08:15:01.146Z,3.47
2019-04-01T08:20:01.052Z,3.99
2019-04-01T08:25:01.070Z,2.58
2019-04-01T08:30:01.111Z,5.14
2019-04-01T08:35:01.414Z,4.67
2019-04-01T08:40:01.204Z,4.11
2019-04-01T08:45:01.391Z,4.58
2019-04-01T08:50:01.123Z,3.00
2019-04-01T08:55:01.504Z,2.49
2019-04-01T09:00:01.060Z,2.52
2019-04-01T09:05:01.093Z,3.20
2019-04-01T09:10:01.065Z,2.69
2019-04-01T09:15:01.381Z,3.54
2019-04-01T09:20:01.068Z,2.98
2019-04-01T09:25:01.435Z,3.28
2019-04-01T09:30:01.056Z,3.75
2019-04-01T09:35:01.096Z,2.82
2019-04-01T09:40:01.077Z,2.39
2019-04-01T09:45:01.066Z,3.59
2019-04-01T09:50:01.390Z,5.68
2019-04-01T09:55:01.377Z,3.63
2019-04-01T10:00:01.408Z,4.48
2019-04-01T10:05:01.060Z,2.07
2019-04-01T10:10:01.388Z,3.44
2019-04-01T10:15:01.430Z,4.41
2019-04-01T10:20:01.643Z,3.02
2019-04-01T10:25:01.195Z,3.39
2019-04-01T10:30:01.171Z,3.13
2019-04-01T10:35:01.168Z,3.48
2019-04-01T10:40:01.110Z,3.79
2019-04-01T10:45:01.095Z,3.28
2019-04-01T10:50:01.103Z,3.08
2019-04-01T10:55:01.120Z,2.06
2019-04-01T11:00:01.411Z,2.18
2019-04-01T11:05:01.150Z,2.66
2019-04-01T11:10:01.111Z,3.44
2019-04-01T11:15:01.470Z,2.56
2019-04-01T11:20:01.659Z,2.36
2019-04-01T11:25:01.180Z,3.79
2019-04-01T11:30:01.102Z,3.30
2019-04-01T11:35:01.119Z,2.76
2019-04-01T11:40:01.499Z,2.87
2019-04-01T11:45:01.375Z,3.27
2019-04-01T11:50:01.360Z,3.37
2019-04-01T11:55:01.454Z,2.34
2019-04-01T12:00:02.280Z,3.15
2019-04-01T12:05:01.595Z,2.16
2019-04-01T12:10:01.070Z,2.22
2019-04-01T12:15:01.109Z,2.23
2019-04-01T12:20:01.474Z,3.80
2019-04-01T12:25:01.076Z,2.20
2019-04-01T12:30:01.607Z,2.52
2019-04-01T12:35:01.052Z,5.04
2019-04-01T12:40:01.067Z,4.61
2019-04-01T12:45:01.061Z,3.18
2019-04-01T12:50:01.436Z,3.50
2019-04-01T12:55:01.214Z,2.02
2019-04-01T13:00:01.550Z,1.96
2019-04-01T13:05:01.070Z,2.59
2019-04-01T13:10:01.105Z,4.04
2019-04-01T13:15:01.116Z,2.57
2019-04-01T13:20:01.054Z,2.67
2019-04-01T13:25:03.618Z,3.08
2019-04-01T13:30:01.487Z,1.52
2019-04-01T13:35:01.073Z,2.48
2019-04-01T13:40:02.903Z,3.35
2019-04-01T13:45:02.002Z,3.99
2019-04-01T13:50:01.159Z,2.94
2019-04-01T13:55:01.162Z,3.61
2019-04-01T14:00:01.094Z,4.29
2019-04-01T14:05:01.396Z,3.09
2019-04-01T14:10:01.131Z,3.33
2019-04-01T14:15:01.547Z,3.89
2019-04-01T14:20:01.072Z,2.04
2019-04-01T14:25:01.104Z,2.61
2019-04-01T14:30:01.450Z,2.90
2019-04-01T14:35:01.054Z,3.62
2019-04-01T14:40:01.076Z,4.00
2019-04-01T14:45:01.615Z,2.38
2019-04-01T14:50:02.833Z,2.77
2019-04-01T14:55:01.457Z,3.71
2019-04-01T15:00:01.421Z,3.89
2019-04-01T15:05:04.577Z,4.08
2019-04-01T15:10:01.272Z,3.98
2019-04-01T15:15:01.084Z,2.65
2019-04-01T15:20:01.063Z,2.38
2019-04-01T15:25:01.364Z,2.24
2019-04-01T15:30:01.056Z,1.83
2019-04-01T15:35:01.071Z,1.91
2019-04-01T15:40:01.066Z,2.73
2019-04-01T15:45:01.067Z,4.33
2019-04-01T15:50:28.330Z,1.67
2019-04-01T15:55:02.466Z,3.01
2019-04-01T16:00:01.126Z,3.18
2019-04-01T16:05:01.071Z,3.79
2019-04-01T16:10:01.108Z,2.99
2019-04-01T16:15:01.113Z,2.97
2019-04-01T16:20:01.505Z,2.27
2019-04-01T16:25:01.056Z,1.68
2019-04-01T16:30:01.125Z,3.11
2019-04-01T16:35:01.404Z,1.69
2019-04-01T16:40:01.084Z,1.77
2019-04-01T16:45:01.438Z,1.73
2019-04-01T16:50:01.508Z,1.24
2019-04-01T16:55:02.632Z,1.08
2019-04-01T17:00:01.058Z,0.80
2019-04-01T17:05:01.713Z,0.89
2019-04-01T17:10:01.217Z,1.39
2019-04-01T17:15:03.527Z,1.49
2019-04-01T17:20:01.220Z,0.66
2019-04-01T17:25:01.547Z,0.81
2019-04-01T17:30:01.426Z,0.88
2019-04-01T17:35:01.627Z,0.68
2019-04-01T17:40:01.178Z,1.21
2019-04-01T17:45:01.107Z,1.43
2019-04-01T17:50:01.206Z,1.35
2019-04-01T17:55:02.542Z,1.54
2019-04-01T18:00:01.754Z,1.41
2019-04-01T18:05:01.098Z,1.91
2019-04-01T18:10:01.171Z,1.51
2019-04-01T18:15:01.113Z,1.56
2019-04-01T18:20:02.287Z,1.76
2019-04-01T18:25:01.542Z,1.81
2019-04-01T18:30:01.189Z,1.59
2019-04-01T18:35:03.997Z,1.13
2019-04-01T18:40:01.140Z,1.41
2019-04-01T18:45:01.110Z,1.22
2019-04-01T18:50:02.339Z,1.11
2019-04-01T18:55:02.148Z,1.23
2019-04-01T19:00:01.267Z,1.19
2019-04-01T19:05:01.939Z,0.84
2019-04-01T19:10:06.389Z,1.05
2019-04-01T19:15:02.581Z,0.82
2019-04-01T19:20:01.119Z,0.82
2019-04-01T19:25:01.990Z,0.77
2019-04-01T19:30:01.197Z,0.79
2019-04-01T19:35:01.240Z,0.88
2019-04-01T19:40:01.099Z,0.70
2019-04-01T19:45:01.239Z,0.51
2019-04-01T19:50:01.999Z,1.14
2019-04-01T19:55:01.195Z,0.94
2019-04-01T20:00:01.062Z,0.81
2019-04-01T20:05:02.420Z,0.79
2019-04-01T20:10:01.070Z,0.88
2019-04-01T20:15:01.119Z,0.72
2019-04-01T20:20:02.303Z,0.59
2019-04-01T20:25:01.545Z,0.84
2019-04-01T20:30:01.615Z,1.15
2019-04-01T20:35:01.094Z,1.31
2019-04-01T20:40:01.097Z,0.85
2019-04-01T20:45:01.452Z,0.68
2019-04-01T20:50:01.502Z,0.45
2019-04-01T20:55:01.104Z,0.45
2019-04-01T21:00:01.070Z,0.04
2019-04-01T21:05:01.169Z,0.80
2019-04-01T21:10:01.106Z,0.49
2019-04-01T21:15:01.466Z,0.75
2019-04-01T21:20:01.446Z,0.19
2019-04-01T21:25:02.250Z,0.72
2019-04-01T21:30:01.119Z,0.67
2019-04-01T21:35:01.093Z,0.60
2019-04-01T21:40:01.364Z,0.15
2019-04-01T21:45:01.368Z,0.72
2019-04-01T21:50:01.076Z,0.67
2019-04-01T21:55:01.084Z,0.66
2019-04-01T22:00:01.110Z,0.89
2019-04-01T22:05:01.326Z,1.00
2019-04-01T22:10:01.139Z,0.36
2019-04-01T22:15:01.170Z,0.81
2019-04-01T22:20:01.087Z,0.80
2019-04-01T22:25:01.726Z,0.81
2019-04-01T22:30:01.653Z,0.62
2019-04-01T22:35:01.087Z,0.29
2019-04-01T22:40:01.234Z,0.24
2019-04-01T22:45:01.541Z,0.40
2019-04-01T22:50:01.072Z,0.00
2019-04-01T22:55:01.049Z,0.34
2019-04-01T23:00:01.099Z,0.77
2019-04-01T23:05:01.400Z,0.26
2019-04-01T23:10:01.133Z,0.09
2019-04-01T23:15:01.506Z,0.25
2019-04-01T23:20:01.143Z,0.39
2019-04-01T23:25:01.363Z,0.24
2019-04-01T23:30:01.081Z,0.00
2019-04-01T23:35:01.427Z,0.00
2019-04-01T23:40:01.112Z,0.04
2019-04-01T23:45:01.057Z,0.73
2019-04-01T23:50:01.525Z,0.27
2019-04-01T23:55:01.100Z,0.78
